Time;durP1;ratioP1;P1;durP2;ratioP2;P2;SDS_P1;SDS_P2;PMS_P1;PMS_P2;Temp;Humidity;BMP_temperature;BMP_pressure;BME280_temperature;BME280_humidity;BME280_pressure;Samples;Min_cycle;Max_cycle;Signal;HPM_P1;HPM_P2
2022/03/02 00:01:56;;;;;;;15.13;10.60;;;1.60;91.20;;;;;;5067800;28;20266;-65
2022/03/02 00:04:22;;;;;;;15.18;11.35;;;1.80;91.20;;;;;;5059015;28;20197;-65
2022/03/02 00:06:47;;;;;;;16.33;11.13;;;1.00;90.60;;;;;;5056981;28;20185;-67
2022/03/02 00:09:13;;;;;;;11.90;10.03;;;1.20;90.70;;;;;;5069649;28;20450;-66
2022/03/02 00:11:39;;;;;;;13.63;10.68;;;1.80;90.90;;;;;;5063989;28;20221;-68
2022/03/02 00:14:05;;;;;;;14.67;11.20;;;1.80;90.90;;;;;;5055050;28;20201;-66
2022/03/02 00:16:32;;;;;;;11.73;10.20;;;2.20;91.30;;;;;;5067618;28;20181;-65
2022/03/02 00:18:59;;;;;;;11.30;9.63;;;1.20;90.90;;;;;;5066829;28;20185;-65
2022/03/02 00:21:25;;;;;;;13.68;10.90;;;1.80;90.80;;;;;;5065375;28;20266;-66
2022/03/02 00:23:51;;;;;;;15.35;11.30;;;2.10;90.40;;;;;;5069935;28;20568;-66
2022/03/02 00:26:17;;;;;;;13.80;10.48;;;2.10;90.00;;;;;;5067146;28;20262;-66
2022/03/02 00:28:43;;;;;;;17.02;11.50;;;2.00;90.40;;;;;;5047869;28;20185;-67
2022/03/02 00:31:08;;;;;;;12.30;11.03;;;1.80;90.30;;;;;;5069353;28;20491;-65
2022/03/02 00:33:35;;;;;;;15.70;11.50;;;2.00;90.90;;;;;;5068812;28;20526;-65
2022/03/02 00:36:00;;;;;;;15.73;11.60;;;1.90;90.70;;;;;;5064479;28;20204;-67
2022/03/02 00:38:26;;;;;;;14.63;11.57;;;2.30;91.00;;;;;;5066415;28;20646;-66
2022/03/02 00:40:52;;;;;;;14.77;11.63;;;2.00;90.80;;;;;;5067824;28;20184;-65
2022/03/02 00:43:18;;;;;;;16.57;11.70;;;2.10;90.70;;;;;;5060325;28;20210;-65
2022/03/02 00:45:43;;;;;;;13.87;11.47;;;2.10;90.50;;;;;;5067625;28;20928;-65
2022/03/02 00:48:10;;;;;;;14.77;11.23;;;2.00;90.20;;;;;;5070584;28;20443;-66
2022/03/02 00:50:36;;;;;;;14.65;10.23;;;1.90;90.10;;;;;;5063704;28;20184;-67
2022/03/02 00:53:05;;;;;;;14.40;10.73;;;2.00;90.50;;;;;;5067153;28;20219;-65
2022/03/02 00:55:32;;;;;;;14.52;11.88;;;2.00;90.30;;;;;;5068667;28;20180;-67
2022/03/02 00:57:57;;;;;;;11.63;9.55;;;2.10;90.00;;;;;;5070764;28;20181;-65
2022/03/02 01:00:23;;;;;;;14.40;10.80;;;2.10;90.20;;;;;;5043667;28;20181;-69
2022/03/02 01:02:48;;;;;;;14.13;10.20;;;1.30;90.00;;;;;;5063265;28;20200;-68
2022/03/02 01:05:14;;;;;;;13.60;10.30;;;2.10;90.70;;;;;;5060563;28;20471;-65
2022/03/02 01:07:40;;;;;;;14.53;10.40;;;1.80;90.60;;;;;;5065771;28;20609;-65
2022/03/02 01:10:07;;;;;;;12.07;10.77;;;2.40;91.00;;;;;;5068120;28;20561;-65
2022/03/02 01:12:34;;;;;;;13.98;10.77;;;2.30;90.60;;;;;;5063246;28;20574;-69
2022/03/02 01:14:59;;;;;;;16.42;10.68;;;2.40;90.80;;;;;;5056179;28;20189;-66
2022/03/02 01:17:25;;;;;;;14.30;10.90;;;2.00;90.60;;;;;;5067056;28;20577;-65
2022/03/02 01:19:51;;;;;;;12.20;10.43;;;2.40;91.10;;;;;;5060406;28;20473;-66
2022/03/02 01:22:17;;;;;;;14.90;10.20;;;2.40;90.90;;;;;;5048789;28;20508;-66
2022/03/02 01:24:43;;;;;;;19.30;11.53;;;1.60;90.30;;;;;;5069390;28;20645;-66
2022/03/02 01:27:09;;;;;;;17.38;11.23;;;2.20;90.50;;;;;;5064476;28;20280;-66
2022/03/02 01:29:35;;;;;;;14.70;11.10;;;1.40;90.00;;;;;;5052197;28;20272;-66
2022/03/02 01:32:05;;;;;;;13.00;10.50;;;1.80;90.60;;;;;;5066905;28;20612;-66
2022/03/02 01:34:31;;;;;;;15.27;11.43;;;2.10;90.90;;;;;;5059467;28;20557;-66
2022/03/02 01:36:57;;;;;;;15.40;10.97;;;2.10;90.70;;;;;;5067303;28;20256;-65
2022/03/02 01:39:23;;;;;;;13.00;10.90;;;1.90;90.70;;;;;;5067565;28;20200;-68
2022/03/02 01:41:48;;;;;;;15.40;10.20;;;2.20;90.80;;;;;;5058820;28;20956;-67
2022/03/02 01:44:14;;;;;;;13.73;11.30;;;1.50;90.50;;;;;;5057750;28;20268;-66
2022/03/02 01:46:41;;;;;;;12.35;10.27;;;2.00;90.90;;;;;;5059252;28;20232;-65
2022/03/02 01:49:07;;;;;;;17.88;10.75;;;1.20;90.70;;;;;;5063142;28;20192;-65
2022/03/02 01:51:33;;;;;;;14.18;10.07;;;1.90;91.50;;;;;;5068888;28;20205;-65
2022/03/02 01:53:59;;;;;;;15.80;11.07;;;1.90;91.20;;;;;;5067925;28;20207;-65
2022/03/02 01:56:25;;;;;;;13.13;10.53;;;1.90;91.20;;;;;;5067765;28;20545;-67
2022/03/02 01:58:51;;;;;;;15.45;10.48;;;2.10;91.40;;;;;;5048364;28;20197;-66
2022/03/02 02:01:17;;;;;;;15.80;11.40;;;2.00;91.10;;;;;;5069562;28;20530;-67
2022/03/02 02:03:43;;;;;;;14.43;12.15;;;1.30;91.20;;;;;;5064122;28;20581;-66
2022/03/02 02:06:10;;;;;;;14.00;10.68;;;2.40;91.80;;;;;;5063411;28;20618;-67
2022/03/02 02:08:36;;;;;;;14.77;10.15;;;2.30;91.70;;;;;;5058415;28;20185;-65
2022/03/02 02:11:03;;;;;;;13.50;10.57;;;1.90;91.60;;;;;;5069105;28;20327;-65
2022/03/02 02:13:32;;;;;;;12.77;10.90;;;1.50;91.70;;;;;;5067433;28;20209;-65
2022/03/02 02:15:58;;;;;;;14.25;10.50;;;1.50;92.30;;;;;;5064536;28;20624;-66
2022/03/02 02:18:24;;;;;;;14.03;10.30;;;1.90;92.90;;;;;;5056058;28;20276;-69
2022/03/02 02:20:49;;;;;;;12.63;9.88;;;1.00;92.60;;;;;;5057654;28;20458;-65
2022/03/02 02:23:15;;;;;;;13.13;9.30;;;1.70;92.80;;;;;;5066129;28;20714;-65
2022/03/02 02:25:41;;;;;;;18.23;11.75;;;1.70;92.80;;;;;;5068815;28;20913;-65
2022/03/02 02:28:12;;;;;;;12.53;10.03;;;1.40;92.80;;;;;;5057991;28;20189;-64
2022/03/02 02:30:38;;;;;;;13.65;10.30;;;1.80;93.20;;;;;;5069829;28;20181;-65
2022/03/02 02:33:04;;;;;;;14.23;10.00;;;1.50;93.10;;;;;;5065389;28;20477;-65
2022/03/02 02:35:29;;;;;;;15.93;11.03;;;1.40;93.10;;;;;;5046014;28;20190;-66
2022/03/02 02:37:58;;;;;;;13.03;11.57;;;1.10;93.00;;;;;;5060919;28;20556;-65
2022/03/02 02:40:25;;;;;;;16.63;10.57;;;0.50;93.10;;;;;;5067786;28;20971;-65
2022/03/02 02:42:51;;;;;;;13.80;10.55;;;1.00;93.80;;;;;;5066149;28;20213;-65
2022/03/02 02:45:20;;;;;;;17.97;11.87;;;1.10;93.90;;;;;;5061807;28;20214;-66
2022/03/02 02:47:53;;;;;;;14.15;11.43;;;1.30;94.00;;;;;;5068300;28;20443;-65
2022/03/02 02:50:27;;;;;;;15.93;11.52;;;0.80;93.90;;;;;;5042059;28;20608;-65
2022/03/02 02:52:54;;;;;;;14.90;11.10;;;1.10;94.00;;;;;;5066122;28;20208;-65
2022/03/02 02:55:21;;;;;;;13.52;10.50;;;1.30;94.30;;;;;;5065662;28;20227;-66
2022/03/02 02:57:48;;;;;;;14.55;11.60;;;1.30;93.90;;;;;;5064943;28;20264;-68
2022/03/02 03:00:17;;;;;;;15.70;10.98;;;1.10;93.60;;;;;;5056775;28;20205;-66
2022/03/02 03:02:45;;;;;;;15.90;10.40;;;1.40;93.40;;;;;;5065970;28;20225;-65
2022/03/02 03:05:12;;;;;;;15.77;11.15;;;1.20;93.90;;;;;;5054959;28;20467;-65
2022/03/02 03:07:39;;;;;;;13.20;10.80;;;1.20;94.10;;;;;;5062834;28;20192;-64
2022/03/02 03:10:05;;;;;;;13.27;11.05;;;0.60;93.80;;;;;;5067500;28;20185;-65
2022/03/02 03:12:32;;;;;;;15.27;10.95;;;1.00;94.30;;;;;;5062592;28;20201;-65
2022/03/02 03:14:57;;;;;;;13.30;10.30;;;1.40;94.50;;;;;;5058522;28;20556;-65
2022/03/02 03:17:23;;;;;;;15.53;9.87;;;1.10;94.30;;;;;;5062189;28;20182;-65
2022/03/02 03:19:49;;;;;;;16.57;10.97;;;1.20;94.70;;;;;;5061419;28;20605;-66
2022/03/02 03:22:15;;;;;;;14.03;9.93;;;1.30;94.10;;;;;;5067315;28;20860;-67
2022/03/02 03:24:40;;;;;;;18.50;10.80;;;1.10;93.60;;;;;;5067526;28;20438;-66
2022/03/02 03:27:06;;;;;;;12.77;11.17;;;1.00;94.10;;;;;;5064317;28;20272;-66
2022/03/02 03:29:32;;;;;;;14.10;11.07;;;1.10;93.90;;;;;;5064775;28;20192;-66
2022/03/02 03:31:57;;;;;;;12.63;10.00;;;1.00;93.90;;;;;;5065554;28;20387;-66
2022/03/02 03:34:23;;;;;;;17.80;12.20;;;1.00;94.20;;;;;;5065632;28;20243;-66
2022/03/02 03:36:49;;;;;;;14.33;11.60;;;0.80;94.50;;;;;;5068373;28;20603;-65
2022/03/02 03:39:15;;;;;;;14.10;10.87;;;0.70;94.70;;;;;;5067815;28;20173;-66
2022/03/02 03:41:40;;;;;;;15.53;9.70;;;0.70;94.80;;;;;;5070820;28;20529;-66
2022/03/02 03:44:06;;;;;;;14.30;11.50;;;0.60;95.00;;;;;;5067141;28;20226;-66
2022/03/02 03:46:31;;;;;;;16.60;10.77;;;0.80;95.00;;;;;;5071442;28;20277;-66
2022/03/02 03:48:57;;;;;;;16.90;11.13;;;0.90;95.10;;;;;;5065033;28;20189;-67
2022/03/02 03:51:23;;;;;;;16.90;12.17;;;1.30;95.20;;;;;;5069091;28;20212;-64
2022/03/02 03:53:48;;;;;;;17.03;11.30;;;0.20;94.70;;;;;;5070277;28;20209;-66
2022/03/02 03:56:14;;;;;;;16.23;10.73;;;0.90;94.60;;;;;;5071334;28;20178;-66
2022/03/02 03:58:39;;;;;;;15.27;10.93;;;0.60;94.90;;;;;;5065521;28;22157;-66
2022/03/02 04:01:05;;;;;;;14.40;11.13;;;0.70;94.90;;;;;;5064230;28;20173;-67
2022/03/02 04:03:31;;;;;;;11.93;10.23;;;0.40;95.20;;;;;;5069862;28;20187;-66
2022/03/02 04:05:56;;;;;;;12.10;9.70;;;0.70;95.20;;;;;;5062733;28;20189;-66
2022/03/02 04:08:22;;;;;;;15.50;11.57;;;0.40;95.30;;;;;;5068862;28;20183;-66
2022/03/02 04:10:49;;;;;;;16.73;11.10;;;0.50;95.40;;;;;;5070170;28;20189;-66
2022/03/02 04:13:15;;;;;;;14.90;11.68;;;0.60;95.40;;;;;;5066835;28;20462;-65
2022/03/02 04:15:41;;;;;;;15.48;11.10;;;0.50;95.10;;;;;;5062618;28;20177;-66
2022/03/02 04:18:07;;;;;;;14.02;10.40;;;0.80;95.20;;;;;;5069211;28;20177;-66
2022/03/02 04:20:36;;;;;;;14.80;10.25;;;0.90;95.70;;;;;;5058672;28;20549;-66
2022/03/02 04:23:03;;;;;;;17.08;11.32;;;0.70;95.60;;;;;;5066689;28;20236;-66
2022/03/02 04:25:29;;;;;;;13.32;10.80;;;0.80;94.90;;;;;;5066280;28;20544;-66
2022/03/02 04:27:55;;;;;;;13.73;9.77;;;0.70;95.20;;;;;;5066077;28;20259;-68
2022/03/02 04:30:21;;;;;;;12.95;10.65;;;0.10;95.30;;;;;;5064756;28;20193;-66
2022/03/02 04:32:47;;;;;;;15.10;11.00;;;0.50;95.50;;;;;;5052189;28;20227;-66
2022/03/02 04:35:13;;;;;;;16.80;11.57;;;0.60;95.60;;;;;;5056369;28;20189;-66
2022/03/02 04:37:40;;;;;;;13.35;10.73;;;0.30;95.80;;;;;;5071104;28;20188;-66
2022/03/02 04:40:08;;;;;;;14.43;10.45;;;0.40;96.10;;;;;;5067183;28;20234;-66
2022/03/02 04:42:35;;;;;;;16.48;10.80;;;0.40;96.10;;;;;;5059798;28;20201;-66
2022/03/02 04:45:01;;;;;;;14.35;10.68;;;0.40;95.70;;;;;;5068720;28;20650;-66
2022/03/02 04:47:27;;;;;;;15.02;10.73;;;0.80;96.10;;;;;;5068068;28;20254;-66
2022/03/02 04:49:52;;;;;;;14.70;11.30;;;0.50;96.30;;;;;;5060286;28;20641;-66
2022/03/02 04:52:18;;;;;;;15.37;10.83;;;0.20;96.50;;;;;;5067637;28;20204;-65
2022/03/02 04:57:29;;;;;;;17.50;11.98;;;0.40;96.60;;;;;;5066885;28;20195;-65
2022/03/02 04:59:55;;;;;;;16.70;11.23;;;0.40;96.50;;;;;;5064778;28;20260;-66
2022/03/02 05:02:21;;;;;;;14.03;10.83;;;0.30;96.60;;;;;;5063379;28;20231;-65
2022/03/02 05:04:46;;;;;;;19.47;11.33;;;0.10;96.40;;;;;;5064886;28;20550;-65
2022/03/02 05:07:12;;;;;;;15.10;11.47;;;0.50;97.10;;;;;;5069010;28;20185;-67
2022/03/02 05:09:38;;;;;;;14.27;10.00;;;0.20;96.70;;;;;;5068310;28;20678;-66
2022/03/02 05:12:04;;;;;;;14.00;10.53;;;0.30;97.00;;;;;;5068418;28;20227;-65
2022/03/02 05:14:30;;;;;;;14.15;10.30;;;0.30;96.90;;;;;;5055439;28;20240;-66
2022/03/02 05:16:56;;;;;;;19.13;12.20;;;0.20;97.00;;;;;;5069398;28;20667;-65
2022/03/02 05:19:21;;;;;;;16.33;11.53;;;-0.20;97.00;;;;;;5063880;28;20182;-65
2022/03/02 05:21:47;;;;;;;14.63;11.20;;;0.60;97.00;;;;;;5068176;28;20265;-65
2022/03/02 05:24:14;;;;;;;18.00;12.10;;;0.90;97.00;;;;;;5056655;28;20454;-66
2022/03/02 05:26:40;;;;;;;14.00;11.70;;;0.10;96.70;;;;;;5065421;28;20234;-66
2022/03/02 05:29:06;;;;;;;13.65;10.57;;;0.20;97.00;;;;;;5047595;28;20195;-66
2022/03/02 05:31:32;;;;;;;16.13;11.17;;;0.40;96.80;;;;;;5069688;28;20295;-65
2022/03/02 05:33:58;;;;;;;14.73;11.30;;;-0.40;96.60;;;;;;5061112;28;20456;-66
2022/03/02 05:36:24;;;;;;;18.63;12.33;;;-0.40;96.60;;;;;;5048630;28;20460;-65
2022/03/02 05:38:51;;;;;;;15.38;11.32;;;0.30;97.30;;;;;;5065965;28;20734;-65
2022/03/02 05:41:17;;;;;;;17.10;11.65;;;0.10;97.10;;;;;;5065766;28;20174;-65
2022/03/02 05:43:43;;;;;;;16.58;12.00;;;0.30;97.60;;;;;;5056471;28;20185;-66
2022/03/02 05:46:09;;;;;;;19.97;12.30;;;0.10;97.40;;;;;;5067760;28;20208;-64
2022/03/02 05:48:35;;;;;;;16.03;11.83;;;0.30;97.70;;;;;;5059343;28;20192;-70
2022/03/02 05:51:00;;;;;;;18.45;11.55;;;0.40;97.60;;;;;;5060063;28;20862;-64
2022/03/02 05:53:26;;;;;;;18.53;12.03;;;0.50;97.50;;;;;;5066632;28;20254;-66
2022/03/02 05:55:52;;;;;;;12.90;11.17;;;0.30;97.60;;;;;;5065418;28;20188;-61
2022/03/02 05:58:17;;;;;;;14.37;11.40;;;0.30;97.50;;;;;;5058740;28;20558;-65
2022/03/02 06:00:43;;;;;;;13.60;10.70;;;0.40;97.30;;;;;;5064216;28;20468;-67
2022/03/02 06:03:09;;;;;;;16.83;11.53;;;0.90;97.20;;;;;;5063871;28;20284;-65
2022/03/02 06:05:35;;;;;;;13.67;11.30;;;0.40;96.70;;;;;;5061840;28;20693;-66
2022/03/02 06:08:01;;;;;;;17.23;12.10;;;0.60;97.00;;;;;;5068350;28;20185;-66
2022/03/02 06:10:27;;;;;;;16.80;11.73;;;0.80;96.80;;;;;;5067020;28;21166;-69
2022/03/02 06:12:53;;;;;;;16.52;11.43;;;0.80;96.20;;;;;;5063549;28;20468;-66
2022/03/02 06:15:18;;;;;;;16.30;10.77;;;1.00;95.90;;;;;;5065066;28;20541;-65
2022/03/02 06:17:44;;;;;;;21.30;12.80;;;0.90;96.00;;;;;;5067020;28;20849;-65
2022/03/02 06:20:11;;;;;;;13.43;10.97;;;1.00;96.00;;;;;;5058829;28;20440;-65
2022/03/02 06:22:37;;;;;;;14.98;10.95;;;1.30;95.40;;;;;;5065786;28;20473;-65
2022/03/02 06:25:04;;;;;;;15.02;11.52;;;1.20;94.80;;;;;;5069554;28;20189;-67
2022/03/02 06:27:30;;;;;;;13.80;10.45;;;1.60;98.30;;;;;;5061106;28;20555;-65
2022/03/02 06:29:56;;;;;;;14.60;11.43;;;2.30;97.30;;;;;;5049929;28;20203;-65
2022/03/02 06:32:22;;;;;;;31.13;15.00;;;2.10;97.10;;;;;;5066906;28;20216;-67
2022/03/02 06:34:47;;;;;;;16.30;12.00;;;2.00;96.90;;;;;;5058301;28;20470;-66
2022/03/02 06:37:13;;;;;;;18.33;11.43;;;2.00;96.20;;;;;;5064508;28;20224;-70
2022/03/02 06:39:39;;;;;;;14.77;11.80;;;2.00;93.60;;;;;;5069357;28;20254;-66
2022/03/02 06:42:22;;;;;;;20.02;12.27;;;2.00;93.10;;;;;;5068262;28;20291;-66
2022/03/02 06:44:55;;;;;;;15.13;11.50;;;1.60;93.00;;;;;;5058388;28;20211;-64
2022/03/02 06:47:31;;;;;;;18.50;11.90;;;2.10;93.20;;;;;;5068734;28;20222;-61
2022/03/02 06:50:13;;;;;;;17.98;11.85;;;1.80;93.10;;;;;;5060552;28;20653;-61
2022/03/02 06:52:44;;;;;;;16.52;12.10;;;1.30;92.50;;;;;;5062619;28;20316;-62
2022/03/02 06:55:18;;;;;;;16.05;11.13;;;2.40;93.50;;;;;;5068174;28;20182;-61
2022/03/02 06:57:56;;;;;;;14.40;11.13;;;2.00;93.20;;;;;;5060585;28;20301;-61
2022/03/02 07:00:23;;;;;;;15.27;11.00;;;1.60;93.60;;;;;;5064418;28;20177;-67
2022/03/02 07:02:51;;;;;;;15.63;11.82;;;1.70;93.70;;;;;;5067838;28;20250;-66
2022/03/02 07:05:18;;;;;;;17.65;11.93;;;1.70;93.40;;;;;;5063589;28;20177;-61
2022/03/02 07:07:45;;;;;;;19.23;11.98;;;2.20;93.30;;;;;;5066095;28;20209;-60
2022/03/02 07:10:10;;;;;;;16.15;11.88;;;2.40;92.30;;;;;;5061438;28;20187;-64
2022/03/02 07:12:37;;;;;;;21.40;12.70;;;2.50;92.40;;;;;;5060605;28;20205;-62
2022/03/02 07:15:04;;;;;;;18.38;11.98;;;2.30;92.40;;;;;;5071785;28;21006;-62
2022/03/02 07:17:32;;;;;;;18.30;12.27;;;2.60;92.40;;;;;;5069635;28;20193;-60
2022/03/02 07:20:06;;;;;;;17.45;11.65;;;2.50;92.30;;;;;;5047078;28;20260;-61
2022/03/02 07:22:34;;;;;;;15.80;11.70;;;2.70;91.90;;;;;;5069363;28;20212;-62
2022/03/02 07:25:15;;;;;;;16.48;12.68;;;3.30;91.30;;;;;;5072442;28;20212;-62
2022/03/02 07:27:41;;;;;;;21.63;12.20;;;2.70;91.20;;;;;;5071341;28;20203;-64
2022/03/02 07:30:08;;;;;;;15.93;11.70;;;2.50;91.30;;;;;;5066686;28;20189;-62
2022/03/02 07:32:36;;;;;;;16.33;11.40;;;2.70;91.00;;;;;;5066525;28;20459;-61
2022/03/02 07:35:05;;;;;;;16.65;11.63;;;3.50;91.20;;;;;;5061221;28;20201;-60
2022/03/02 07:37:31;;;;;;;13.23;11.80;;;3.00;90.80;;;;;;5067947;28;20189;-62
2022/03/02 07:39:58;;;;;;;22.38;12.00;;;3.20;91.00;;;;;;5044088;28;20200;-65
2022/03/02 07:42:24;;;;;;;16.70;12.68;;;3.30;91.40;;;;;;5052710;28;20208;-64
2022/03/02 07:44:51;;;;;;;15.38;12.00;;;3.00;90.80;;;;;;5067339;28;20255;-64
2022/03/02 07:47:17;;;;;;;16.50;11.73;;;2.90;91.00;;;;;;5064808;28;20688;-63
2022/03/02 07:49:43;;;;;;;16.50;12.85;;;2.90;90.90;;;;;;5058402;28;20182;-63
2022/03/02 07:52:10;;;;;;;15.37;13.33;;;3.50;91.10;;;;;;5070290;28;20203;-65
2022/03/02 07:54:39;;;;;;;18.40;13.70;;;3.30;90.50;;;;;;5060607;28;20212;-64
2022/03/02 07:57:10;;;;;;;21.35;12.82;;;3.50;90.30;;;;;;5073005;28;20181;-60
2022/03/02 07:59:39;;;;;;;16.92;12.93;;;3.40;89.00;;;;;;5046197;28;20548;-61
2022/03/02 08:02:07;;;;;;;22.33;13.30;;;3.10;89.40;;;;;;5047615;28;20255;-61
2022/03/02 08:04:34;;;;;;;20.23;12.73;;;3.30;88.90;;;;;;5068402;28;20189;-64
2022/03/02 08:07:00;;;;;;;20.35;13.85;;;3.70;89.60;;;;;;5067034;28;20183;-61
2022/03/02 08:09:26;;;;;;;21.40;12.80;;;4.10;88.70;;;;;;5055191;28;20193;-62
2022/03/02 08:11:52;;;;;;;17.07;12.23;;;4.30;87.80;;;;;;5071213;28;20203;-62
2022/03/02 08:14:18;;;;;;;17.80;13.23;;;4.70;87.10;;;;;;5067714;28;20211;-58
2022/03/02 08:16:47;;;;;;;25.92;13.60;;;4.70;85.70;;;;;;5068801;28;20274;-63
2022/03/02 08:19:13;;;;;;;21.38;14.50;;;4.80;86.40;;;;;;5052242;28;20205;-63
2022/03/02 08:21:43;;;;;;;20.08;14.68;;;4.50;84.50;;;;;;5070579;28;20680;-62
2022/03/02 08:24:12;;;;;;;28.70;20.83;;;4.60;84.90;;;;;;5066859;28;20195;-60
2022/03/02 08:26:39;;;;;;;16.65;13.20;;;5.20;85.70;;;;;;5062844;28;20269;-59
2022/03/02 08:29:13;;;;;;;14.77;13.10;;;5.50;83.80;;;;;;5063482;28;20191;-60
2022/03/02 08:31:41;;;;;;;18.90;14.02;;;6.00;83.20;;;;;;5069430;28;20209;-59
2022/03/02 08:34:07;;;;;;;17.20;12.40;;;5.70;80.20;;;;;;5061050;28;20365;-61
2022/03/02 08:36:34;;;;;;;16.40;13.63;;;5.40;80.20;;;;;;5070429;28;20506;-58
2022/03/02 08:39:03;;;;;;;16.33;12.50;;;5.50;80.90;;;;;;5048385;28;20438;-64
2022/03/02 08:41:28;;;;;;;19.23;13.60;;;5.20;80.90;;;;;;5071037;28;20214;-60
2022/03/02 08:43:56;;;;;;;20.10;12.90;;;5.00;80.60;;;;;;5068415;28;20193;-60
2022/03/02 08:46:22;;;;;;;21.10;13.63;;;5.20;80.70;;;;;;5070850;28;20188;-61
2022/03/02 08:48:47;;;;;;;16.20;13.30;;;5.30;80.10;;;;;;5060608;28;20223;-61
2022/03/02 08:51:13;;;;;;;17.97;13.47;;;5.10;80.80;;;;;;5066653;28;20205;-61
2022/03/02 08:53:40;;;;;;;17.90;13.00;;;5.70;80.20;;;;;;5068567;28;20215;-63
2022/03/02 08:56:07;;;;;;;17.23;14.45;;;6.00;79.00;;;;;;5066421;28;20551;-65
2022/03/02 08:58:35;;;;;;;22.38;16.17;;;6.20;77.90;;;;;;5058332;28;20214;-60
2022/03/02 09:01:02;;;;;;;18.83;14.43;;;5.60;76.90;;;;;;5067956;28;20197;-60
2022/03/02 09:03:31;;;;;;;18.65;14.32;;;6.60;76.90;;;;;;5064127;28;20209;-62
2022/03/02 09:05:57;;;;;;;19.60;13.88;;;7.00;75.90;;;;;;5061474;28;20177;-60
2022/03/02 09:08:23;;;;;;;19.53;14.20;;;7.20;74.00;;;;;;5069345;28;20215;-60
2022/03/02 09:10:49;;;;;;;20.93;14.03;;;7.60;73.40;;;;;;5065543;28;20185;-62
2022/03/02 09:13:14;;;;;;;16.43;14.10;;;7.40;71.60;;;;;;5057735;28;20533;-61
2022/03/02 09:15:42;;;;;;;17.53;14.20;;;7.80;70.50;;;;;;5071992;28;20439;-66
2022/03/02 09:18:07;;;;;;;20.00;14.52;;;7.90;69.70;;;;;;5069490;28;20188;-62
2022/03/02 09:20:33;;;;;;;15.90;13.40;;;8.40;69.50;;;;;;5064626;28;20185;-63
2022/03/02 09:23:02;;;;;;;19.10;15.30;;;8.50;69.20;;;;;;5064155;28;20467;-63
2022/03/02 09:25:30;;;;;;;18.30;14.73;;;8.40;68.90;;;;;;5066070;28;20472;-66
2022/03/02 09:27:56;;;;;;;26.33;19.55;;;8.70;69.10;;;;;;5065479;28;20184;-63
2022/03/02 09:30:23;;;;;;;25.48;16.35;;;9.10;68.80;;;;;;5064308;28;20260;-66
2022/03/02 09:32:52;;;;;;;17.08;14.75;;;9.50;67.20;;;;;;5068792;28;20205;-64
2022/03/02 09:35:20;;;;;;;19.23;15.05;;;9.30;64.80;;;;;;5070596;28;20177;-62
2022/03/02 09:37:53;;;;;;;21.02;14.48;;;9.20;64.40;;;;;;5068256;28;20228;-62
2022/03/02 09:40:25;;;;;;;23.38;15.50;;;9.20;64.90;;;;;;5049781;28;20215;-63
2022/03/02 09:42:55;;;;;;;21.00;14.45;;;9.00;64.10;;;;;;5062242;28;20817;-60
2022/03/02 09:45:21;;;;;;;15.75;13.50;;;9.20;62.70;;;;;;5050550;28;20728;-64
2022/03/02 09:47:53;;;;;;;16.55;14.05;;;9.50;64.00;;;;;;5065020;28;20650;-64
2022/03/02 09:50:20;;;;;;;16.98;13.82;;;9.40;63.50;;;;;;5057741;28;20189;-65
2022/03/02 09:52:47;;;;;;;16.05;14.23;;;9.40;63.00;;;;;;5059725;28;20194;-63
2022/03/02 09:55:16;;;;;;;15.35;13.75;;;8.50;62.60;;;;;;5064563;28;20272;-65
2022/03/02 09:57:47;;;;;;;19.60;14.10;;;8.80;64.60;;;;;;5061224;28;20218;-63
2022/03/02 10:00:16;;;;;;;25.17;19.92;;;9.10;64.30;;;;;;5069055;28;20229;-64
2022/03/02 10:02:45;;;;;;;20.55;14.73;;;9.50;63.70;;;;;;5061875;28;20239;-63
2022/03/02 10:05:17;;;;;;;16.48;13.38;;;9.80;61.20;;;;;;5059787;28;20683;-64
2022/03/02 10:07:54;;;;;;;17.60;13.30;;;9.80;61.70;;;;;;5065017;28;20191;-64
2022/03/02 10:10:23;;;;;;;18.55;14.80;;;10.10;59.70;;;;;;5070039;28;20182;-60
2022/03/02 10:13:01;;;;;;;15.18;12.82;;;10.20;58.80;;;;;;5067097;28;20582;-62
2022/03/02 10:15:27;;;;;;;17.30;13.50;;;10.50;58.50;;;;;;5059164;28;20236;-61
2022/03/02 10:17:56;;;;;;;18.30;14.43;;;10.60;57.80;;;;;;5053524;28;20190;-57
2022/03/02 10:20:24;;;;;;;16.40;14.10;;;10.60;57.60;;;;;;5056801;28;20180;-57
2022/03/02 10:23:00;;;;;;;18.85;14.13;;;11.00;56.90;;;;;;5065218;28;20216;-57
2022/03/02 10:25:43;;;;;;;17.38;13.95;;;11.30;56.40;;;;;;5064287;28;20184;-61
2022/03/02 10:28:15;;;;;;;18.38;15.13;;;11.50;55.60;;;;;;5062862;28;20905;-62
2022/03/02 10:30:46;;;;;;;18.35;14.30;;;11.40;55.50;;;;;;5068147;28;20275;-63
2022/03/02 10:33:25;;;;;;;17.40;13.68;;;11.60;55.20;;;;;;5063711;28;20603;-61
2022/03/02 10:36:03;;;;;;;16.42;14.43;;;11.10;54.90;;;;;;5059293;28;20192;-63
2022/03/02 10:38:55;;;;;;;14.50;13.00;;;11.60;55.70;;;;;;5064397;28;20263;-62
2022/03/02 10:41:21;;;;;;;15.20;13.20;;;11.20;54.80;;;;;;5062433;28;20587;-59
2022/03/02 10:44:02;;;;;;;15.87;14.10;;;11.00;55.00;;;;;;5069207;28;20198;-64
2022/03/02 10:46:29;;;;;;;14.20;12.70;;;11.20;55.40;;;;;;5059252;28;20463;-59
2022/03/02 10:49:27;;;;;;;15.52;13.60;;;11.00;54.60;;;;;;5054281;28;20597;-60
2022/03/02 10:51:56;;;;;;;15.32;13.73;;;11.10;54.60;;;;;;5042554;28;20218;-60
2022/03/02 10:54:23;;;;;;;17.15;12.90;;;10.80;55.20;;;;;;5055779;28;20216;-67
2022/03/02 10:56:54;;;;;;;16.08;13.68;;;10.70;55.90;;;;;;5063661;28;20265;-65
2022/03/02 10:59:30;;;;;;;16.60;13.23;;;10.50;56.20;;;;;;5044017;28;20178;-65
2022/03/02 11:02:00;;;;;;;18.00;13.80;;;10.30;56.70;;;;;;5066507;28;20288;-65
2022/03/02 11:04:28;;;;;;;19.33;15.52;;;10.10;56.70;;;;;;5060811;28;20561;-65
2022/03/02 11:06:56;;;;;;;16.30;14.52;;;9.90;58.40;;;;;;5068345;28;20243;-65
2022/03/02 11:09:25;;;;;;;15.38;13.73;;;9.70;58.70;;;;;;5065779;28;20261;-65
2022/03/02 11:11:53;;;;;;;16.38;13.95;;;9.50;58.80;;;;;;5063508;28;20216;-64
2022/03/02 11:14:20;;;;;;;15.27;13.68;;;9.50;59.30;;;;;;5055736;28;20689;-65
2022/03/02 11:16:47;;;;;;;16.20;13.43;;;9.20;59.60;;;;;;5065032;28;20189;-65
2022/03/02 11:19:15;;;;;;;16.25;14.50;;;9.30;60.30;;;;;;5056052;28;20278;-66
2022/03/02 11:21:43;;;;;;;16.75;14.60;;;9.30;60.20;;;;;;5053376;28;20214;-66
2022/03/02 11:24:15;;;;;;;21.13;14.10;;;9.60;59.70;;;;;;5057517;28;20186;-66
2022/03/02 11:26:42;;;;;;;18.88;14.10;;;9.70;59.60;;;;;;5062378;28;20251;-65
2022/03/02 11:29:16;;;;;;;17.45;14.05;;;9.80;59.90;;;;;;5061060;28;20198;-66
2022/03/02 11:31:46;;;;;;;16.90;12.50;;;9.90;59.80;;;;;;5065510;28;20207;-65
2022/03/02 11:34:18;;;;;;;17.42;13.85;;;10.30;63.60;;;;;;5060577;28;20269;-65
2022/03/02 11:36:48;;;;;;;16.17;13.23;;;10.50;58.90;;;;;;5055265;28;20179;-65
2022/03/02 11:39:15;;;;;;;16.10;13.20;;;10.50;57.30;;;;;;5056407;28;20276;-65
2022/03/02 11:41:43;;;;;;;15.05;13.55;;;10.50;57.70;;;;;;5066680;28;20697;-65
2022/03/02 11:44:39;;;;;;;15.93;13.90;;;10.60;56.90;;;;;;5054417;28;20204;-65
2022/03/02 11:47:05;;;;;;;16.55;13.18;;;10.90;60.80;;;;;;5049597;28;20207;-65
2022/03/02 11:49:56;;;;;;;16.40;13.88;;;10.70;58.70;;;;;;5058425;28;20199;-65
2022/03/02 11:52:24;;;;;;;16.80;13.35;;;11.10;57.20;;;;;;5067103;28;20212;-65
2022/03/02 11:54:56;;;;;;;17.05;14.25;;;10.90;58.40;;;;;;5061418;28;20321;-65
2022/03/02 11:57:24;;;;;;;14.23;12.43;;;11.20;55.90;;;;;;5054094;28;20175;-65
2022/03/02 12:00:09;;;;;;;15.02;13.40;;;11.00;56.90;;;;;;5061230;28;20208;-65
2022/03/02 12:02:50;;;;;;;15.90;13.30;;;10.80;55.80;;;;;;5058614;28;20207;-65
2022/03/02 12:05:18;;;;;;;16.35;12.73;;;11.00;56.20;;;;;;5053443;28;20179;-65
2022/03/02 12:07:46;;;;;;;18.25;13.15;;;11.50;55.30;;;;;;5069680;28;20194;-65
2022/03/02 12:10:22;;;;;;;19.55;15.52;;;11.20;54.60;;;;;;5065528;28;20195;-65
2022/03/02 12:12:50;;;;;;;13.05;11.65;;;11.00;54.90;;;;;;5056547;28;20214;-65
2022/03/02 12:15:16;;;;;;;18.02;13.00;;;11.10;54.20;;;;;;5067064;28;20574;-65
2022/03/02 12:17:43;;;;;;;15.63;13.52;;;11.10;54.40;;;;;;5064855;28;20559;-66
2022/03/02 12:20:15;;;;;;;13.95;12.45;;;11.20;55.10;;;;;;5057674;28;20191;-65
2022/03/02 12:22:48;;;;;;;19.63;12.02;;;10.80;54.00;;;;;;5071940;28;20268;-65
2022/03/02 12:25:17;;;;;;;13.88;11.23;;;10.80;53.80;;;;;;5068721;28;20195;-65
2022/03/02 12:27:58;;;;;;;13.27;11.50;;;11.10;52.20;;;;;;5060931;28;20204;-65
2022/03/02 12:30:24;;;;;;;18.83;13.40;;;11.20;51.70;;;;;;5040993;28;20192;-61
2022/03/02 12:32:54;;;;;;;15.05;12.85;;;10.90;52.70;;;;;;5054525;28;20277;-59
2022/03/02 12:35:23;;;;;;;14.07;12.40;;;11.10;53.00;;;;;;5060376;28;20188;-63
2022/03/02 12:37:50;;;;;;;14.25;11.57;;;11.10;52.30;;;;;;5059519;28;20184;-59
2022/03/02 12:40:16;;;;;;;13.60;12.13;;;11.40;52.00;;;;;;5070551;28;20236;-59
2022/03/02 12:42:51;;;;;;;18.92;12.35;;;11.00;52.20;;;;;;5070316;28;20203;-59